Gleisdorf, Austria
Current Conditions -  °F | °C
As of 10:50 PM on Thursday 23 Oct 2014 (Local Time) from LOWG Reporting Station
Broken Clouds Broken Clouds  
Wind Chill: 55°   Ceiling: 9000
Heat Index: 55°   Visibility: 6mi
Dew Point: 39°   Wind: 17mph
Humidity: 54%   Direction: 340°NNW
Pressure: 29.88"   Gusts: NA
Location:  47.11°N, 15.71°E
Report Text: LOWG 232050Z 34015KT 310V010 9999 SCT055 BKN090 13/04 Q1012 NOSIG
Loading
Personal Weather Stations






























Interactive Weather Map
Tropical Storm Tracking
New forecast layout! Learn more

10-Day Weather Forecast

Advertisements
Track Severe Weather on mobile